Time;durP1;ratioP1;P1;durP2;ratioP2;P2;SDS_P1;SDS_P2;PMS_P1;PMS_P2;Temp;Humidity;BMP_temperature;BMP_pressure;BME280_temperature;BME280_humidity;BME280_pressure;Samples;Min_cycle;Max_cycle;Signal;HPM_P1;HPM_P2
2023/12/05 00:01:04;;;;;;;14.43;7.20;;;;;;;;;;5041468;28;20021;-74
2023/12/05 00:03:30;;;;;;;15.27;7.47;;;;;;;;;;5040311;28;20033;-71
2023/12/05 00:05:55;;;;;;;12.80;6.70;;;;;;;;;;5041784;28;20028;-69
2023/12/05 00:08:20;;;;;;;10.97;5.37;;;;;;;;;;5039680;28;20084;-68
2023/12/05 00:10:45;;;;;;;15.93;7.43;;;;;;;;;;5037874;28;20399;-68
2023/12/05 00:13:11;;;;;;;24.33;10.87;;;;;;;;;;5043960;28;20094;-67
2023/12/05 00:15:36;;;;;;;10.47;5.67;;;;;;;;;;5037808;28;20055;-67
2023/12/05 00:18:01;;;;;;;15.07;6.83;;;;;;;;;;5037162;28;20476;-68
2023/12/05 00:20:27;;;;;;;15.80;7.80;;;;;;;;;;5037334;28;20029;-70
2023/12/05 00:22:52;;;;;;;18.30;9.07;;;;;;;;;;5039152;28;20041;-67
2023/12/05 00:25:17;;;;;;;11.33;4.70;;;;;;;;;;5041428;28;20355;-69
2023/12/05 00:27:44;;;;;;;13.97;7.07;;;;;;;;;;5034944;28;20474;-69
2023/12/05 00:30:09;;;;;;;16.57;7.70;;;;;;;;;;5047136;28;20037;-68
2023/12/05 00:32:34;;;;;;;12.70;6.30;;;;;;;;;;5038942;28;20159;-69
2023/12/05 00:35:00;;;;;;;14.77;7.40;;;;;;;;;;5039543;28;20176;-69
2023/12/05 00:37:25;;;;;;;22.77;10.47;;;;;;;;;;5034781;28;20048;-69
2023/12/05 00:39:50;;;;;;;21.87;10.20;;;;;;;;;;5038676;28;20021;-69
2023/12/05 00:42:15;;;;;;;11.67;6.00;;;;;;;;;;5039122;28;20029;-69
2023/12/05 00:44:41;;;;;;;18.97;8.73;;;;;;;;;;5042319;28;20098;-68
2023/12/05 00:47:06;;;;;;;13.90;7.03;;;;;;;;;;5042348;28;20033;-69
2023/12/05 00:49:34;;;;;;;19.53;8.73;;;;;;;;;;5033021;28;20027;-68
2023/12/05 00:51:59;;;;;;;16.27;7.73;;;;;;;;;;5043290;28;20052;-68
2023/12/05 00:54:24;;;;;;;14.17;7.90;;;;;;;;;;5039958;28;20040;-68
2023/12/05 00:56:50;;;;;;;18.87;9.83;;;;;;;;;;5041445;28;20044;-68
2023/12/05 00:59:15;;;;;;;13.23;6.23;;;;;;;;;;5037274;28;20021;-68
2023/12/05 01:01:41;;;;;;;18.60;9.03;;;;;;;;;;5037709;28;20469;-68
2023/12/05 01:04:06;;;;;;;12.40;6.77;;;;;;;;;;5034295;28;20036;-69
2023/12/05 01:06:31;;;;;;;22.03;9.80;;;;;;;;;;5040649;28;20390;-68
2023/12/05 01:08:56;;;;;;;21.10;8.73;;;;;;;;;;5037888;28;20375;-68
2023/12/05 01:11:22;;;;;;;19.80;8.87;;;;;;;;;;5035546;28;20063;-69
2023/12/05 01:13:47;;;;;;;18.33;8.77;;;;;;;;;;5037344;28;20087;-69
2023/12/05 01:16:14;;;;;;;15.87;7.63;;;;;;;;;;5039090;28;20032;-68
2023/12/05 01:18:39;;;;;;;18.07;7.80;;;;;;;;;;5032344;28;20616;-68
2023/12/05 01:21:05;;;;;;;22.80;10.37;;;;;;;;;;5037543;28;20025;-68
2023/12/05 01:23:30;;;;;;;11.77;5.87;;;;;;;;;;5035141;28;20018;-68
2023/12/05 01:25:55;;;;;;;15.13;6.67;;;;;;;;;;5032730;28;20393;-68
2023/12/05 01:28:21;;;;;;;11.00;6.07;;;;;;;;;;5039709;28;20480;-68
2023/12/05 01:30:46;;;;;;;25.40;12.30;;;;;;;;;;5033792;28;20099;-68
2023/12/05 01:33:11;;;;;;;16.03;8.80;;;;;;;;;;5038691;28;20029;-67
2023/12/05 01:35:37;;;;;;;17.80;7.93;;;;;;;;;;5036482;28;20082;-67
2023/12/05 01:38:02;;;;;;;12.40;5.47;;;;;;;;;;5041574;28;20052;-66
2023/12/05 01:40:27;;;;;;;17.63;9.77;;;;;;;;;;5039335;28;20063;-67
2023/12/05 01:42:52;;;;;;;18.67;9.43;;;;;;;;;;5038288;28;20370;-67
2023/12/05 01:45:18;;;;;;;27.40;12.80;;;;;;;;;;5036240;28;20017;-67
2023/12/05 01:47:43;;;;;;;14.13;7.10;;;;;;;;;;5035926;28;20037;-69
2023/12/05 01:50:10;;;;;;;16.00;7.07;;;;;;;;;;5037500;28;20044;-66
2023/12/05 01:52:36;;;;;;;21.37;9.00;;;;;;;;;;5041435;28;20045;-68
2023/12/05 01:55:02;;;;;;;22.23;9.87;;;;;;;;;;5043007;28;20033;-67
2023/12/05 01:57:28;;;;;;;21.30;10.40;;;;;;;;;;5030442;28;20634;-68
2023/12/05 01:59:53;;;;;;;20.47;9.17;;;;;;;;;;5038669;28;20017;-69
2023/12/05 02:02:19;;;;;;;18.80;9.43;;;;;;;;;;5035983;28;20017;-67
2023/12/05 02:04:44;;;;;;;25.57;12.20;;;;;;;;;;5040557;28;20469;-67
2023/12/05 02:07:10;;;;;;;22.00;9.93;;;;;;;;;;5038640;28;20113;-69
2023/12/05 02:09:35;;;;;;;23.37;10.23;;;;;;;;;;5033631;28;20009;-67
2023/12/05 02:12:01;;;;;;;16.03;8.07;;;;;;;;;;5037109;28;20147;-68
2023/12/05 02:14:26;;;;;;;20.97;10.70;;;;;;;;;;5041553;28;20113;-69
2023/12/05 02:16:58;;;;;;;21.80;9.53;;;;;;;;;;5035054;28;20025;-68
2023/12/05 02:19:42;;;;;;;18.75;8.32;;;;;;;;;;5038598;28;20048;-69
2023/12/05 02:22:26;;;;;;;22.10;10.20;;;;;;;;;;5032330;28;20029;-67
2023/12/05 02:24:51;;;;;;;24.83;11.70;;;;;;;;;;5036276;28;20021;-66
2023/12/05 02:27:20;;;;;;;25.87;12.10;;;;;;;;;;5041301;28;20023;-74
2023/12/05 02:29:54;;;;;;;22.97;11.33;;;;;;;;;;5033979;28;20466;-75
2023/12/05 02:32:19;;;;;;;26.30;11.70;;;;;;;;;;5035500;28;20561;-72
2023/12/05 02:34:45;;;;;;;22.23;10.60;;;;;;;;;;5034122;28;20024;-71
2023/12/05 02:37:29;;;;;;;16.37;8.07;;;;;;;;;;5038236;28;20684;-74
2023/12/05 02:40:04;;;;;;;23.87;11.30;;;;;;;;;;5033965;28;20070;-75
2023/12/05 02:42:30;;;;;;;24.60;11.77;;;;;;;;;;5035271;28;20010;-71
2023/12/05 02:44:56;;;;;;;16.53;7.67;;;;;;;;;;5037317;28;20021;-72
2023/12/05 02:47:23;;;;;;;18.00;8.40;;;;;;;;;;5036937;28;20460;-71
2023/12/05 02:49:48;;;;;;;24.07;11.73;;;;;;;;;;5040882;28;20021;-74
2023/12/05 02:52:14;;;;;;;17.30;8.20;;;;;;;;;;5037333;28;20417;-71
2023/12/05 02:54:39;;;;;;;18.47;7.77;;;;;;;;;;5030693;28;20017;-76
2023/12/05 02:57:04;;;;;;;26.30;11.50;;;;;;;;;;5038142;28;20083;-74
2023/12/05 02:59:30;;;;;;;22.77;9.73;;;;;;;;;;5036451;28;20021;-73
2023/12/05 03:01:55;;;;;;;12.40;6.23;;;;;;;;;;5039683;28;20017;-72
2023/12/05 03:04:20;;;;;;;23.30;9.07;;;;;;;;;;5039313;28;20009;-72
2023/12/05 03:06:45;;;;;;;19.03;7.90;;;;;;;;;;5030541;28;20484;-72
2023/12/05 03:09:11;;;;;;;23.40;10.53;;;;;;;;;;5036955;28;20033;-72
2023/12/05 03:11:36;;;;;;;17.13;7.80;;;;;;;;;;5030832;28;20025;-75
2023/12/05 03:14:02;;;;;;;30.33;12.57;;;;;;;;;;5039827;28;20444;-74
2023/12/05 03:16:28;;;;;;;20.17;10.03;;;;;;;;;;5038278;28;20051;-72
2023/12/05 03:18:53;;;;;;;19.40;8.83;;;;;;;;;;5035077;28;20021;-73
2023/12/05 03:21:19;;;;;;;27.47;13.10;;;;;;;;;;5036171;28;20017;-72
2023/12/05 03:23:44;;;;;;;22.80;9.90;;;;;;;;;;5031862;28;20109;-72
2023/12/05 03:26:20;;;;;;;13.80;6.27;;;;;;;;;;5033773;28;20057;-71
2023/12/05 03:28:45;;;;;;;21.07;10.60;;;;;;;;;;5035139;28;20488;-71
2023/12/05 03:31:10;;;;;;;18.33;9.77;;;;;;;;;;5031256;28;20026;-73
2023/12/05 03:33:36;;;;;;;19.90;9.40;;;;;;;;;;5036383;28;20021;-74
2023/12/05 03:36:01;;;;;;;22.17;10.53;;;;;;;;;;5034907;28;20013;-67
2023/12/05 03:38:26;;;;;;;25.20;12.03;;;;;;;;;;5033388;28;20076;-67
2023/12/05 03:40:52;;;;;;;14.37;7.93;;;;;;;;;;5037733;28;20410;-67
2023/12/05 03:43:17;;;;;;;30.03;13.17;;;;;;;;;;5035345;28;20024;-67
2023/12/05 03:45:42;;;;;;;28.00;13.67;;;;;;;;;;5038744;28;20027;-67
2023/12/05 03:48:07;;;;;;;27.40;11.67;;;;;;;;;;5035723;28;20037;-66
2023/12/05 03:50:33;;;;;;;17.80;7.87;;;;;;;;;;5034935;28;20633;-68
2023/12/05 03:52:58;;;;;;;22.77;9.83;;;;;;;;;;5037031;28;20087;-66
2023/12/05 03:55:23;;;;;;;14.70;7.17;;;;;;;;;;5038604;28;20032;-67
2023/12/05 03:57:48;;;;;;;24.43;11.67;;;;;;;;;;5040403;28;20016;-67
2023/12/05 04:00:15;;;;;;;24.73;11.17;;;;;;;;;;5036533;28;20056;-68
2023/12/05 04:02:40;;;;;;;29.20;13.30;;;;;;;;;;5035500;28;20021;-66
2023/12/05 04:05:06;;;;;;;30.03;13.07;;;;;;;;;;5032550;28;20009;-67
2023/12/05 04:07:32;;;;;;;29.87;14.10;;;;;;;;;;5034982;28;20461;-67
2023/12/05 04:09:57;;;;;;;17.43;8.87;;;;;;;;;;5036511;28;20028;-67
2023/12/05 04:12:22;;;;;;;18.03;8.37;;;;;;;;;;5037553;28;20078;-67
2023/12/05 04:14:48;;;;;;;25.77;12.60;;;;;;;;;;5031053;28;20504;-68
2023/12/05 04:17:13;;;;;;;17.63;8.97;;;;;;;;;;5038496;28;20056;-67
2023/12/05 04:19:39;;;;;;;18.07;8.50;;;;;;;;;;5036049;28;20052;-67
2023/12/05 04:22:04;;;;;;;16.20;8.43;;;;;;;;;;5030859;28;20120;-67
2023/12/05 04:24:29;;;;;;;25.17;10.70;;;;;;;;;;5035450;28;20104;-67
2023/12/05 04:26:55;;;;;;;24.37;10.07;;;;;;;;;;5037093;28;20018;-67
2023/12/05 04:29:20;;;;;;;21.20;9.17;;;;;;;;;;5037699;28;20214;-68
2023/12/05 04:31:45;;;;;;;26.77;11.37;;;;;;;;;;5034868;28;20029;-67
2023/12/05 04:34:11;;;;;;;23.07;10.10;;;;;;;;;;5033271;28;20390;-67
2023/12/05 04:36:36;;;;;;;26.00;11.87;;;;;;;;;;5034803;28;20040;-65
2023/12/05 04:39:01;;;;;;;23.80;10.93;;;;;;;;;;5034684;28;20100;-65
2023/12/05 04:41:27;;;;;;;29.47;13.17;;;;;;;;;;5036898;28;20033;-66
2023/12/05 04:43:52;;;;;;;22.80;10.33;;;;;;;;;;5040743;28;20020;-66
2023/12/05 04:46:18;;;;;;;29.83;13.30;;;;;;;;;;5038911;28;20037;-68
2023/12/05 04:48:44;;;;;;;17.43;8.73;;;;;;;;;;5039367;28;20040;-68
2023/12/05 04:51:09;;;;;;;25.00;12.30;;;;;;;;;;5040653;28;20025;-67
2023/12/05 04:53:34;;;;;;;34.57;15.03;;;;;;;;;;5037157;28;20052;-66
2023/12/05 04:55:59;;;;;;;25.80;11.30;;;;;;;;;;5042450;28;20051;-66
2023/12/05 04:58:25;;;;;;;32.30;13.23;;;;;;;;;;5040143;28;20030;-74
2023/12/05 05:00:50;;;;;;;32.23;14.97;;;;;;;;;;5038913;28;20021;-72
2023/12/05 05:03:17;;;;;;;25.00;11.17;;;;;;;;;;5037353;28;20020;-72
2023/12/05 05:05:42;;;;;;;32.07;15.10;;;;;;;;;;5043218;28;20557;-71
2023/12/05 05:08:07;;;;;;;28.77;12.83;;;;;;;;;;5040928;28;20031;-74
2023/12/05 05:10:33;;;;;;;24.80;10.77;;;;;;;;;;5042066;28;20025;-74
2023/12/05 05:12:59;;;;;;;18.30;8.30;;;;;;;;;;5036302;28;20036;-75
2023/12/05 05:15:24;;;;;;;22.93;9.60;;;;;;;;;;5038754;28;20029;-71
2023/12/05 05:17:50;;;;;;;21.67;9.53;;;;;;;;;;5038277;28;20029;-70
2023/12/05 05:20:15;;;;;;;25.67;11.53;;;;;;;;;;5036919;28;20017;-74
2023/12/05 05:22:40;;;;;;;26.10;10.97;;;;;;;;;;5040349;28;20028;-70
2023/12/05 05:25:06;;;;;;;28.27;12.17;;;;;;;;;;5034743;28;20032;-74
2023/12/05 05:27:31;;;;;;;20.13;8.80;;;;;;;;;;5042930;28;20017;-74
2023/12/05 05:29:56;;;;;;;15.10;6.63;;;;;;;;;;5034122;28;20021;-74
2023/12/05 05:32:21;;;;;;;32.03;14.53;;;;;;;;;;5035242;28;20109;-75
2023/12/05 05:34:47;;;;;;;33.60;15.00;;;;;;;;;;5038891;28;20029;-74
2023/12/05 05:37:12;;;;;;;24.23;11.17;;;;;;;;;;5032959;28;20370;-72
2023/12/05 05:39:37;;;;;;;32.57;14.70;;;;;;;;;;5039328;28;20096;-74
2023/12/05 05:42:03;;;;;;;23.97;11.50;;;;;;;;;;5035464;28;20119;-75
2023/12/05 05:44:28;;;;;;;24.47;10.77;;;;;;;;;;5033134;28;20019;-74
2023/12/05 05:46:53;;;;;;;26.13;10.40;;;;;;;;;;5041997;28;20033;-74
2023/12/05 05:49:19;;;;;;;28.60;11.87;;;;;;;;;;5034029;28;20040;-73
2023/12/05 05:51:44;;;;;;;37.03;15.70;;;;;;;;;;5041379;28;20033;-69
2023/12/05 05:54:09;;;;;;;27.30;12.43;;;;;;;;;;5038782;28;20396;-71
2023/12/05 05:56:38;;;;;;;32.23;14.53;;;;;;;;;;5036246;28;20021;-75
2023/12/05 05:59:04;;;;;;;33.33;14.13;;;;;;;;;;5039227;28;20465;-74
2023/12/05 06:01:29;;;;;;;28.00;12.83;;;;;;;;;;5039717;28;20078;-72
2023/12/05 06:03:54;;;;;;;29.80;13.00;;;;;;;;;;5039228;28;20013;-73
2023/12/05 06:06:20;;;;;;;31.37;14.17;;;;;;;;;;5040671;28;20356;-74
2023/12/05 06:08:45;;;;;;;37.97;15.30;;;;;;;;;;5041444;28;20115;-73
2023/12/05 06:11:10;;;;;;;25.53;11.37;;;;;;;;;;5037080;28;20063;-72
2023/12/05 06:13:35;;;;;;;24.03;11.13;;;;;;;;;;5038861;28;20024;-72
2023/12/05 06:16:01;;;;;;;27.57;13.47;;;;;;;;;;5038163;28;20039;-71
2023/12/05 06:18:26;;;;;;;26.63;12.53;;;;;;;;;;5037145;28;20062;-73
2023/12/05 06:20:52;;;;;;;33.10;13.70;;;;;;;;;;5035796;28;20020;-71
2023/12/05 06:23:17;;;;;;;30.50;13.13;;;;;;;;;;5034129;28;20032;-75
2023/12/05 06:25:43;;;;;;;33.83;14.70;;;;;;;;;;5036733;28;20421;-71
2023/12/05 06:28:08;;;;;;;29.23;12.47;;;;;;;;;;5030961;28;20082;-71
2023/12/05 06:30:33;;;;;;;23.33;11.67;;;;;;;;;;5037114;28;20017;-71
2023/12/05 06:32:58;;;;;;;34.57;15.57;;;;;;;;;;5034057;28;20036;-70
2023/12/05 06:35:24;;;;;;;30.40;13.03;;;;;;;;;;5036938;28;20025;-70
2023/12/05 06:37:52;;;;;;;29.83;13.67;;;;;;;;;;5036629;28;20051;-73
2023/12/05 06:40:17;;;;;;;35.53;15.57;;;;;;;;;;5029207;28;20500;-70
2023/12/05 06:42:42;;;;;;;34.43;14.70;;;;;;;;;;5039596;28;20021;-73
2023/12/05 06:45:08;;;;;;;30.13;12.13;;;;;;;;;;5033556;28;20029;-74
2023/12/05 06:47:33;;;;;;;32.90;13.10;;;;;;;;;;5035803;28;20021;-71
2023/12/05 06:50:01;;;;;;;28.57;11.90;;;;;;;;;;5034936;28;20021;-74
2023/12/05 06:52:27;;;;;;;31.90;12.73;;;;;;;;;;5032159;28;20049;-73
2023/12/05 06:54:52;;;;;;;30.47;13.03;;;;;;;;;;5037621;28;20567;-72
2023/12/05 06:57:17;;;;;;;25.93;11.83;;;;;;;;;;5041722;28;20097;-73
2023/12/05 06:59:42;;;;;;;30.40;11.83;;;;;;;;;;5037028;28;20010;-74
2023/12/05 07:02:08;;;;;;;39.80;15.67;;;;;;;;;;5031854;28;20021;-71
2023/12/05 07:04:33;;;;;;;34.87;15.47;;;;;;;;;;5040211;28;20424;-71
2023/12/05 07:06:59;;;;;;;39.13;15.13;;;;;;;;;;5035650;28;20017;-74
2023/12/05 07:09:24;;;;;;;26.77;11.80;;;;;;;;;;5040259;28;20014;-74
2023/12/05 07:11:49;;;;;;;18.93;8.93;;;;;;;;;;5037960;28;20020;-75
2023/12/05 07:14:15;;;;;;;42.87;17.20;;;;;;;;;;5036501;28;20629;-70
2023/12/05 07:16:40;;;;;;;41.60;17.43;;;;;;;;;;5037861;28;20021;-70
2023/12/05 07:19:05;;;;;;;44.77;17.60;;;;;;;;;;5034498;28;20021;-69
2023/12/05 07:21:30;;;;;;;36.60;13.60;;;;;;;;;;5033566;28;20021;-72
2023/12/05 07:23:56;;;;;;;34.97;14.03;;;;;;;;;;5035844;28;20017;-75
2023/12/05 07:26:22;;;;;;;43.30;17.10;;;;;;;;;;5035336;28;20107;-69
2023/12/05 07:28:47;;;;;;;43.60;16.13;;;;;;;;;;5039436;28;20039;-70
2023/12/05 07:31:12;;;;;;;46.37;18.53;;;;;;;;;;5031753;28;20028;-72
2023/12/05 07:33:37;;;;;;;36.73;15.77;;;;;;;;;;5034653;28;20025;-71
2023/12/05 07:36:03;;;;;;;42.27;16.67;;;;;;;;;;5033160;28;20816;-72
2023/12/05 07:38:28;;;;;;;31.57;13.23;;;;;;;;;;5030912;28;20123;-73
2023/12/05 07:40:54;;;;;;;48.60;19.03;;;;;;;;;;5036015;28;20428;-72
2023/12/05 07:43:19;;;;;;;35.50;15.53;;;;;;;;;;5032911;28;20144;-74
2023/12/05 07:45:44;;;;;;;34.83;13.50;;;;;;;;;;5040604;28;20521;-74
2023/12/05 07:48:10;;;;;;;32.87;14.90;;;;;;;;;;5029215;28;20075;-71
2023/12/05 07:50:36;;;;;;;38.47;15.27;;;;;;;;;;5029080;28;20021;-71
2023/12/05 07:53:01;;;;;;;33.37;13.57;;;;;;;;;;5029762;28;20061;-70
2023/12/05 07:55:26;;;;;;;39.30;16.40;;;;;;;;;;5033449;28;20032;-72
2023/12/05 07:57:51;;;;;;;37.87;15.73;;;;;;;;;;5037179;28;20029;-73
2023/12/05 08:00:18;;;;;;;42.53;16.93;;;;;;;;;;5030006;28;20055;-72
2023/12/05 08:02:44;;;;;;;42.23;16.70;;;;;;;;;;5038108;28;20456;-72
2023/12/05 08:05:10;;;;;;;30.70;11.30;;;;;;;;;;5041498;28;20109;-72
2023/12/05 08:07:35;;;;;;;38.27;16.43;;;;;;;;;;5034967;28;20037;-68
2023/12/05 08:10:00;;;;;;;35.57;14.63;;;;;;;;;;5035769;28;20009;-71
2023/12/05 08:12:25;;;;;;;32.97;14.10;;;;;;;;;;5035759;28;20033;-73
2023/12/05 08:14:51;;;;;;;36.10;16.00;;;;;;;;;;5045010;28;20272;-72
2023/12/05 08:17:16;;;;;;;46.30;19.77;;;;;;;;;;5041946;28;20061;-70
2023/12/05 08:19:41;;;;;;;34.00;13.73;;;;;;;;;;5040574;28;20371;-73
2023/12/05 08:22:06;;;;;;;40.17;17.40;;;;;;;;;;5041241;28;20048;-70
2023/12/05 08:24:31;;;;;;;38.27;15.53;;;;;;;;;;5039306;28;20063;-70
2023/12/05 08:26:57;;;;;;;34.60;15.30;;;;;;;;;;5039191;28;20432;-71
2023/12/05 08:29:22;;;;;;;31.53;13.50;;;;;;;;;;5037017;28;20107;-73
2023/12/05 08:31:47;;;;;;;36.73;13.83;;;;;;;;;;5040385;28;20017;-74
2023/12/05 08:34:12;;;;;;;38.53;16.63;;;;;;;;;;5036957;28;20040;-72
2023/12/05 08:36:38;;;;;;;27.30;12.43;;;;;;;;;;5036549;28;20079;-69
2023/12/05 08:39:03;;;;;;;39.43;15.67;;;;;;;;;;5037608;28;20029;-67
2023/12/05 08:41:29;;;;;;;45.63;17.70;;;;;;;;;;5036552;28;20028;-67
2023/12/05 08:43:54;;;;;;;41.20;16.47;;;;;;;;;;5039391;28;20013;-66
2023/12/05 08:46:19;;;;;;;36.50;15.13;;;;;;;;;;5033481;28;20024;-66
2023/12/05 08:48:45;;;;;;;38.97;16.63;;;;;;;;;;5036021;28;20025;-68
2023/12/05 08:51:10;;;;;;;37.43;15.13;;;;;;;;;;5034606;28;20036;-68
2023/12/05 08:53:35;;;;;;;45.07;17.47;;;;;;;;;;5037738;28;20045;-68
2023/12/05 08:56:00;;;;;;;39.87;16.43;;;;;;;;;;5038321;28;20025;-66
2023/12/05 08:58:26;;;;;;;44.93;18.43;;;;;;;;;;5036337;28;20013;-66
2023/12/05 09:00:51;;;;;;;38.47;15.57;;;;;;;;;;5036721;28;20013;-66
2023/12/05 09:03:16;;;;;;;43.57;18.37;;;;;;;;;;5033905;28;20497;-64
2023/12/05 09:05:41;;;;;;;33.40;14.17;;;;;;;;;;5036982;28;20027;-68
2023/12/05 09:08:07;;;;;;;42.87;17.90;;;;;;;;;;5035317;28;20021;-67
2023/12/05 09:10:32;;;;;;;41.87;17.60;;;;;;;;;;5034963;28;20026;-66
2023/12/05 09:12:57;;;;;;;17.00;8.83;;;;;;;;;;5043179;28;20021;-68
2023/12/05 09:15:22;;;;;;;29.53;11.77;;;;;;;;;;5042839;28;20029;-67
2023/12/05 09:17:48;;;;;;;39.53;15.67;;;;;;;;;;5041825;28;20026;-66
2023/12/05 09:20:13;;;;;;;38.93;15.10;;;;;;;;;;5038681;28;20104;-66
2023/12/05 09:22:38;;;;;;;47.50;18.10;;;;;;;;;;5037886;28;20017;-67
2023/12/05 09:25:04;;;;;;;45.20;15.13;;;;;;;;;;5037606;28;20029;-67
2023/12/05 09:27:29;;;;;;;33.13;13.43;;;;;;;;;;5036783;28;20012;-68
2023/12/05 09:29:54;;;;;;;37.80;14.73;;;;;;;;;;5037532;28;20013;-67
2023/12/05 09:32:19;;;;;;;35.23;14.10;;;;;;;;;;5039531;28;20542;-69
2023/12/05 09:34:45;;;;;;;42.87;14.93;;;;;;;;;;5034663;28;20032;-69
2023/12/05 09:37:10;;;;;;;37.73;15.03;;;;;;;;;;5040157;28;20079;-69
2023/12/05 09:39:36;;;;;;;44.67;17.20;;;;;;;;;;5034113;28;20022;-66
2023/12/05 09:42:05;;;;;;;32.20;13.13;;;;;;;;;;5038653;28;20014;-67
2023/12/05 09:44:31;;;;;;;35.63;13.43;;;;;;;;;;5035156;28;20014;-66
2023/12/05 09:46:57;;;;;;;39.43;16.77;;;;;;;;;;5034802;28;20048;-72
2023/12/05 09:49:27;;;;;;;35.97;15.93;;;;;;;;;;5035683;28;20013;-70
2023/12/05 09:51:55;;;;;;;40.57;15.20;;;;;;;;;;5036173;28;20114;-74
2023/12/05 09:54:22;;;;;;;42.13;15.30;;;;;;;;;;5035336;28;20560;-71
2023/12/05 09:56:48;;;;;;;28.93;12.63;;;;;;;;;;5030519;28;20104;-74
2023/12/05 09:59:15;;;;;;;37.53;14.73;;;;;;;;;;5034413;28;20096;-70
2023/12/05 10:01:42;;;;;;;44.13;16.57;;;;;;;;;;5038640;28;20370;-72
2023/12/05 10:04:10;;;;;;;31.43;13.07;;;;;;;;;;5041191;28;20022;-73
2023/12/05 10:06:36;;;;;;;39.73;15.73;;;;;;;;;;5030437;28;20064;-72
2023/12/05 10:09:02;;;;;;;34.80;14.47;;;;;;;;;;5031396;28;20374;-70
2023/12/05 10:11:28;;;;;;;43.17;17.70;;;;;;;;;;5043156;28;20052;-70
2023/12/05 10:13:53;;;;;;;37.53;15.77;;;;;;;;;;5037829;28;20051;-72
2023/12/05 10:16:19;;;;;;;38.43;16.57;;;;;;;;;;5038698;28;20021;-73
2023/12/05 10:18:46;;;;;;;37.37;14.43;;;;;;;;;;5030826;28;20370;-72
2023/12/05 10:21:11;;;;;;;41.47;16.47;;;;;;;;;;5039432;28;20103;-71
2023/12/05 10:23:37;;;;;;;40.40;15.70;;;;;;;;;;5039459;28;20100;-72
2023/12/05 10:26:03;;;;;;;36.97;13.43;;;;;;;;;;5037376;28;20138;-72
2023/12/05 10:28:28;;;;;;;39.40;15.43;;;;;;;;;;5036885;28;20139;-72
2023/12/05 10:30:53;;;;;;;31.90;13.27;;;;;;;;;;5035878;28;20100;-74
2023/12/05 10:33:19;;;;;;;40.10;15.77;;;;;;;;;;5037911;28;20027;-72
2023/12/05 10:35:45;;;;;;;37.47;14.27;;;;;;;;;;5036091;28;20162;-73
2023/12/05 10:38:12;;;;;;;34.43;15.13;;;;;;;;;;5037355;28;20108;-71
2023/12/05 10:40:49;;;;;;;40.63;15.50;;;;;;;;;;5050487;28;20016;-72
2023/12/05 10:43:14;;;;;;;42.47;15.70;;;;;;;;;;5033648;28;20016;-72
2023/12/05 10:45:40;;;;;;;34.97;14.07;;;;;;;;;;5037373;28;20021;-73
2023/12/05 10:48:05;;;;;;;33.23;13.70;;;;;;;;;;5031328;28;20389;-71
2023/12/05 10:50:31;;;;;;;35.60;12.67;;;;;;;;;;5035274;28;20017;-70
2023/12/05 10:52:58;;;;;;;39.33;16.23;;;;;;;;;;5034495;28;20226;-71
2023/12/05 10:55:24;;;;;;;32.30;13.83;;;;;;;;;;5029459;28;20489;-70
2023/12/05 10:57:49;;;;;;;37.43;14.77;;;;;;;;;;5037192;28;20017;-70
2023/12/05 11:00:15;;;;;;;25.67;11.37;;;;;;;;;;5033458;28;20460;-72
2023/12/05 11:02:40;;;;;;;28.67;10.97;;;;;;;;;;5037640;28;20071;-71
2023/12/05 11:05:08;;;;;;;33.33;12.83;;;;;;;;;;5030106;28;20025;-71
2023/12/05 11:07:33;;;;;;;25.03;9.93;;;;;;;;;;5038517;28;20017;-70
2023/12/05 11:09:59;;;;;;;38.13;14.73;;;;;;;;;;5037225;28;20457;-72
2023/12/05 11:12:24;;;;;;;36.20;14.23;;;;;;;;;;5037428;28;20021;-71
2023/12/05 11:14:51;;;;;;;29.53;12.90;;;;;;;;;;5034181;28;20018;-72
2023/12/05 11:17:23;;;;;;;37.37;15.00;;;;;;;;;;5028807;28;20350;-71
2023/12/05 11:20:08;;;;;;;33.30;14.03;;;;;;;;;;5038428;28;20017;-72
2023/12/05 11:22:33;;;;;;;33.93;14.30;;;;;;;;;;5036889;28;20369;-71
2023/12/05 11:25:17;;;;;;;34.13;13.90;;;;;;;;;;5038449;28;20005;-72
2023/12/05 11:27:54;;;;;;;38.90;15.73;;;;;;;;;;5033284;28;20013;-72
2023/12/05 11:30:37;;;;;;;34.17;13.40;;;;;;;;;;5037543;28;20465;-71
2023/12/05 11:33:21;;;;;;;29.30;12.20;;;;;;;;;;5041691;28;20017;-70
2023/12/05 11:36:00;;;;;;;35.90;13.87;;;;;;;;;;5037734;28;20053;-71
2023/12/05 11:38:25;;;;;;;39.90;16.23;;;;;;;;;;5035242;28;20009;-71
2023/12/05 11:41:09;;;;;;;37.47;14.03;;;;;;;;;;5033648;28;20062;-70
2023/12/05 11:43:35;;;;;;;33.57;13.60;;;;;;;;;;5037402;28;20017;-71
2023/12/05 11:46:00;;;;;;;42.00;17.33;;;;;;;;;;5033362;28;20006;-72
2023/12/05 11:48:26;;;;;;;34.20;13.23;;;;;;;;;;5040239;28;20108;-72
2023/12/05 11:50:51;;;;;;;32.97;14.17;;;;;;;;;;5035715;28;20408;-72
2023/12/05 11:53:19;;;;;;;33.63;12.47;;;;;;;;;;5037862;28;20052;-71
2023/12/05 11:55:48;;;;;;;39.40;14.73;;;;;;;;;;5038631;28;20068;-72
2023/12/05 11:58:30;;;;;;;40.70;15.17;;;;;;;;;;5039963;28;20474;-71
2023/12/05 12:01:05;;;;;;;43.88;15.18;;;;;;;;;;5037030;28;20039;-71
2023/12/05 12:03:42;;;;;;;36.03;14.10;;;;;;;;;;5035954;28;20405;-71
2023/12/05 12:06:09;;;;;;;20.63;8.93;;;;;;;;;;5040517;28;20139;-70
2023/12/05 12:08:34;;;;;;;40.87;17.17;;;;;;;;;;5039571;28;20025;-68
2023/12/05 12:11:00;;;;;;;42.30;16.93;;;;;;;;;;5038593;28;20016;-68
2023/12/05 12:13:26;;;;;;;40.53;15.20;;;;;;;;;;5036051;28;20029;-68
2023/12/05 12:15:51;;;;;;;33.67;14.30;;;;;;;;;;5037039;28;20020;-67
2023/12/05 12:18:23;;;;;;;38.10;15.73;;;;;;;;;;5037289;28;20466;-67
2023/12/05 12:20:50;;;;;;;40.03;15.77;;;;;;;;;;5035686;28;20526;-67
2023/12/05 12:23:15;;;;;;;29.57;12.03;;;;;;;;;;5033985;28;20013;-68
2023/12/05 12:25:50;;;;;;;38.70;15.93;;;;;;;;;;5036818;28;20025;-67
2023/12/05 12:28:25;;;;;;;41.63;15.97;;;;;;;;;;5036838;28;20071;-67
2023/12/05 12:30:51;;;;;;;35.43;14.70;;;;;;;;;;5037939;28;20029;-67
2023/12/05 12:33:16;;;;;;;38.53;14.30;;;;;;;;;;5038122;28;20543;-68
2023/12/05 12:35:42;;;;;;;33.47;13.20;;;;;;;;;;5030883;28;20021;-68
2023/12/05 12:38:09;;;;;;;41.33;15.33;;;;;;;;;;5035386;28;20255;-68
2023/12/05 12:40:34;;;;;;;31.43;11.20;;;;;;;;;;5037971;28;20021;-69
2023/12/05 12:43:00;;;;;;;38.20;15.40;;;;;;;;;;5037526;28;20017;-67
2023/12/05 12:45:25;;;;;;;37.07;14.30;;;;;;;;;;5032534;28;20013;-68
2023/12/05 12:47:51;;;;;;;25.30;11.03;;;;;;;;;;5040408;28;20474;-67
2023/12/05 12:50:17;;;;;;;26.93;10.27;;;;;;;;;;5039234;28;20743;-68
2023/12/05 12:52:42;;;;;;;43.37;15.50;;;;;;;;;;5036462;28;20124;-67
2023/12/05 12:55:08;;;;;;;33.47;13.03;;;;;;;;;;5038702;28;20485;-68
2023/12/05 12:57:34;;;;;;;35.67;13.63;;;;;;;;;;5037913;28;20511;-68
2023/12/05 13:00:00;;;;;;;35.90;14.53;;;;;;;;;;5035321;28;20024;-66
2023/12/05 13:02:25;;;;;;;45.63;16.77;;;;;;;;;;5038301;28;20486;-67
2023/12/05 13:04:55;;;;;;;35.07;13.33;;;;;;;;;;5035352;28;20025;-68
2023/12/05 13:07:24;;;;;;;37.23;13.93;;;;;;;;;;5037879;28;20136;-66
2023/12/05 13:09:49;;;;;;;29.50;12.07;;;;;;;;;;5032371;28;20029;-68
2023/12/05 13:12:14;;;;;;;22.97;9.77;;;;;;;;;;5039240;28;20222;-68
2023/12/05 13:14:40;;;;;;;38.93;14.43;;;;;;;;;;5040376;28;20524;-66
2023/12/05 13:17:06;;;;;;;35.60;15.00;;;;;;;;;;5040289;28;20032;-66
2023/12/05 13:19:35;;;;;;;30.17;11.03;;;;;;;;;;5035208;28;20591;-68
2023/12/05 13:22:00;;;;;;;41.80;15.00;;;;;;;;;;5034596;28;20026;-66
2023/12/05 13:24:26;;;;;;;25.13;10.37;;;;;;;;;;5035766;28;20482;-67
2023/12/05 13:26:52;;;;;;;31.27;12.90;;;;;;;;;;5038497;28;20072;-67
2023/12/05 13:29:17;;;;;;;32.63;12.13;;;;;;;;;;5034416;28;20021;-68
2023/12/05 13:31:43;;;;;;;42.93;14.33;;;;;;;;;;5033199;28;20029;-68
2023/12/05 13:34:08;;;;;;;34.97;13.10;;;;;;;;;;5031652;28;20279;-66
2023/12/05 13:36:33;;;;;;;41.60;15.57;;;;;;;;;;5037858;28;20041;-66
2023/12/05 13:38:59;;;;;;;33.77;14.10;;;;;;;;;;5038363;28;20024;-65
2023/12/05 13:41:24;;;;;;;42.83;16.60;;;;;;;;;;5032389;28;20025;-65
2023/12/05 13:43:51;;;;;;;32.40;11.60;;;;;;;;;;5033941;28;20254;-66
2023/12/05 13:46:16;;;;;;;35.90;14.10;;;;;;;;;;5037497;28;20585;-66
2023/12/05 13:48:43;;;;;;;29.47;12.77;;;;;;;;;;5035326;28;20022;-68
2023/12/05 13:51:08;;;;;;;56.47;21.90;;;;;;;;;;5038866;28;20116;-66
2023/12/05 13:53:34;;;;;;;40.07;16.60;;;;;;;;;;5032774;28;20458;-67
2023/12/05 13:55:59;;;;;;;42.43;16.20;;;;;;;;;;5033283;28;20026;-66
2023/12/05 13:58:24;;;;;;;38.83;16.23;;;;;;;;;;5038402;28;20013;-68
2023/12/05 14:00:50;;;;;;;28.13;12.47;;;;;;;;;;5037207;28;20024;-65
2023/12/05 14:03:15;;;;;;;37.57;14.03;;;;;;;;;;5033185;28;20018;-65
2023/12/05 14:05:43;;;;;;;24.57;8.27;;;;;;;;;;5038900;28;20032;-67
2023/12/05 14:08:08;;;;;;;38.23;15.37;;;;;;;;;;5033783;28;20474;-65
2023/12/05 14:10:33;;;;;;;31.73;13.13;;;;;;;;;;5039155;28;20041;-66
2023/12/05 14:12:59;;;;;;;33.17;12.47;;;;;;;;;;5037006;28;20048;-66
2023/12/05 14:15:24;;;;;;;43.53;16.03;;;;;;;;;;5035911;28;20461;-67